createdAt,value
2022-11-20T00:00:46.354Z,100745.00
2022-11-20T00:03:15.093Z,100747.53
2022-11-20T00:05:44.389Z,100752.63
2022-11-20T00:08:12.642Z,100754.22
2022-11-20T00:10:40.982Z,100750.00
2022-11-20T00:13:09.229Z,100759.41
2022-11-20T00:15:37.066Z,100762.84
2022-11-20T00:18:05.088Z,100758.50
2022-11-20T00:20:32.998Z,100761.13
2022-11-20T00:23:02.194Z,100763.63
2022-11-20T00:25:30.063Z,100766.09
2022-11-20T00:27:57.989Z,100761.03
2022-11-20T00:30:25.805Z,100768.75
2022-11-20T00:32:53.625Z,100765.31
2022-11-20T00:35:21.511Z,100763.66
2022-11-20T00:37:49.285Z,100767.91
2022-11-20T00:40:18.751Z,100761.06
2022-11-20T00:42:46.638Z,100761.03
2022-11-20T00:45:14.510Z,100770.53
2022-11-20T00:47:42.356Z,100757.72
2022-11-20T00:50:10.888Z,100764.59
2022-11-20T00:52:38.732Z,100762.94
2022-11-20T00:55:07.648Z,100761.09
2022-11-20T00:57:37.080Z,100761.88
2022-11-20T01:00:05.914Z,100754.22
2022-11-20T01:02:33.775Z,100755.97
2022-11-20T01:05:01.694Z,100756.00
2022-11-20T01:07:29.626Z,100756.88
2022-11-20T01:09:57.497Z,100752.56
2022-11-20T01:12:25.305Z,100751.75
2022-11-20T01:14:54.556Z,100760.19
2022-11-20T01:17:22.449Z,100751.69
2022-11-20T01:19:51.132Z,100756.81
2022-11-20T01:22:18.997Z,100755.13
2022-11-20T01:24:46.877Z,100758.63
2022-11-20T01:27:14.693Z,100755.16
2022-11-20T01:29:42.574Z,100756.00
2022-11-20T01:32:11.802Z,100753.41
2022-11-20T01:34:39.617Z,100750.94
2022-11-20T01:37:07.766Z,100748.16
2022-11-20T01:39:35.649Z,100741.25
2022-11-20T01:42:21.158Z,100736.13
2022-11-20T01:44:55.497Z,100735.31
2022-11-20T01:47:30.072Z,100736.00
2022-11-20T01:50:02.170Z,100724.81
2022-11-20T01:52:33.236Z,100718.78
2022-11-20T01:55:04.011Z,100718.78
2022-11-20T01:57:33.753Z,100719.66
2022-11-20T02:00:05.363Z,100711.09
2022-11-20T02:02:43.472Z,100706.75
2022-11-20T02:05:17.493Z,100692.28
2022-11-20T02:07:45.728Z,100692.97
2022-11-20T02:10:13.781Z,100691.34
2022-11-20T02:13:17.785Z,100691.41
2022-11-20T02:15:46.368Z,100695.00
2022-11-20T02:18:23.786Z,100693.16
2022-11-20T02:20:55.475Z,100692.13
2022-11-20T02:23:27.506Z,100690.44
2022-11-20T02:25:57.421Z,100690.28
2022-11-20T02:28:25.506Z,100682.47
2022-11-20T02:30:53.344Z,100674.81
2022-11-20T02:33:21.238Z,100676.53
2022-11-20T02:35:49.243Z,100674.91
2022-11-20T02:38:17.419Z,100672.28
2022-11-20T02:40:45.365Z,100676.50
2022-11-20T02:43:14.631Z,100662.00
2022-11-20T02:45:42.490Z,100666.25
2022-11-20T02:48:10.368Z,100669.63
2022-11-20T02:50:41.797Z,100668.81
2022-11-20T02:53:09.714Z,100664.66
2022-11-20T02:55:37.711Z,100670.59
2022-11-20T02:58:05.549Z,100667.91
2022-11-20T03:00:34.732Z,100661.94
2022-11-20T03:03:02.624Z,100661.13
2022-11-20T03:05:30.501Z,100659.44
2022-11-20T03:07:58.352Z,100659.38
2022-11-20T03:10:26.220Z,100660.16
2022-11-20T03:12:55.917Z,100662.88
2022-11-20T03:15:23.922Z,100663.69
2022-11-20T03:17:55.619Z,100660.22
2022-11-20T03:20:23.624Z,100655.16
2022-11-20T03:22:51.585Z,100656.00
2022-11-20T03:25:19.480Z,100649.94
2022-11-20T03:27:47.419Z,100649.09
2022-11-20T03:30:16.205Z,100652.56
2022-11-20T03:32:44.142Z,100646.50
2022-11-20T03:35:13.367Z,100652.47
2022-11-20T03:37:41.241Z,100641.31
2022-11-20T03:40:10.150Z,100632.00
2022-11-20T03:42:49.858Z,100635.31
2022-11-20T03:45:19.522Z,100630.13
2022-11-20T03:47:47.589Z,100632.72
2022-11-20T03:50:19.486Z,100630.16
2022-11-20T03:52:47.411Z,100625.09
2022-11-20T03:55:15.453Z,100632.84
2022-11-20T03:57:43.324Z,100628.41
2022-11-20T04:00:12.398Z,100629.25
2022-11-20T04:02:40.297Z,100626.69
2022-11-20T04:05:08.784Z,100627.59
2022-11-20T04:07:38.044Z,100632.00
2022-11-20T04:10:06.881Z,100625.94
2022-11-20T04:12:35.447Z,100630.97
2022-11-20T04:15:03.320Z,100621.63
2022-11-20T04:17:31.132Z,100626.84
2022-11-20T04:19:59.003Z,100626.84
2022-11-20T04:22:27.033Z,100625.03
2022-11-20T04:24:56.269Z,100626.78
2022-11-20T04:27:24.154Z,100628.56
2022-11-20T04:29:52.005Z,100629.34
2022-11-20T04:32:19.866Z,100621.63
2022-11-20T04:34:47.688Z,100623.28
2022-11-20T04:37:15.547Z,100616.28
2022-11-20T04:39:43.416Z,100614.63
2022-11-20T04:42:30.969Z,100622.31
2022-11-20T04:44:59.149Z,100627.41
2022-11-20T04:47:27.017Z,100626.56
2022-11-20T04:49:54.924Z,100623.09
2022-11-20T04:52:22.718Z,100629.94
2022-11-20T04:54:53.626Z,100623.91
2022-11-20T04:57:22.955Z,100617.09
2022-11-20T04:59:50.816Z,100623.84
2022-11-20T05:02:18.760Z,100613.56
2022-11-20T05:04:46.563Z,100613.66
2022-11-20T05:07:14.440Z,100614.44
2022-11-20T05:09:42.351Z,100611.81
2022-11-20T05:12:10.432Z,100605.72
2022-11-20T05:14:39.665Z,100606.56
2022-11-20T05:17:07.690Z,100606.50
2022-11-20T05:19:35.499Z,100604.81
2022-11-20T05:22:03.325Z,100603.13
2022-11-20T05:24:31.128Z,100590.25
2022-11-20T05:26:58.924Z,100584.19
2022-11-20T05:29:26.784Z,100580.91
2022-11-20T05:31:55.985Z,100583.47
2022-11-20T05:34:23.821Z,100591.91
2022-11-20T05:36:51.794Z,100581.72
2022-11-20T05:39:20.202Z,100579.28
2022-11-20T05:42:08.153Z,100579.25
2022-11-20T05:44:36.043Z,100580.13
2022-11-20T05:47:05.871Z,100564.84
2022-11-20T05:49:33.802Z,100566.38
2022-11-20T05:52:01.634Z,100558.81
2022-11-20T05:54:29.529Z,100551.06
2022-11-20T05:56:57.489Z,100556.91
2022-11-20T05:59:25.384Z,100561.19
2022-11-20T06:01:53.199Z,100565.34
2022-11-20T06:04:22.500Z,100553.38
2022-11-20T06:06:50.352Z,100560.34
2022-11-20T06:09:18.267Z,100557.69
2022-11-20T06:11:46.076Z,100561.03
2022-11-20T06:14:13.932Z,100551.72
2022-11-20T06:16:41.760Z,100551.66
2022-11-20T06:19:09.725Z,100543.88
2022-11-20T06:21:39.176Z,100550.69
2022-11-20T06:24:07.870Z,100554.00
2022-11-20T06:26:35.882Z,100548.84
2022-11-20T06:29:03.693Z,100549.78
2022-11-20T06:31:33.765Z,100550.56
2022-11-20T06:34:01.824Z,100546.34
2022-11-20T06:36:29.752Z,100548.84
2022-11-20T06:38:59.129Z,100548.94
2022-11-20T06:41:27.311Z,100550.59
2022-11-20T06:43:55.475Z,100552.38
2022-11-20T06:46:23.387Z,100553.25
2022-11-20T06:48:52.005Z,100548.19
2022-11-20T06:51:19.940Z,100543.03
2022-11-20T06:53:47.810Z,100545.56
2022-11-20T06:56:17.048Z,100537.91
2022-11-20T06:58:45.155Z,100550.84
2022-11-20T07:01:14.527Z,100547.41
2022-11-20T07:03:43.027Z,100545.78
2022-11-20T07:06:11.719Z,100550.09
2022-11-20T07:08:39.912Z,100547.53
2022-11-20T07:11:08.989Z,100541.50
2022-11-20T07:13:38.261Z,100539.84
2022-11-20T07:16:07.928Z,100541.63
2022-11-20T07:18:36.367Z,100538.97
2022-11-20T07:21:04.692Z,100540.59
2022-11-20T07:23:32.552Z,100532.25
2022-11-20T07:26:00.754Z,100527.94
2022-11-20T07:28:28.667Z,100527.97
2022-11-20T07:30:57.856Z,100526.25
2022-11-20T07:33:25.822Z,100526.25
2022-11-20T07:35:53.796Z,100527.91
2022-11-20T07:38:21.731Z,100523.72
2022-11-20T07:40:49.892Z,100520.19
2022-11-20T07:43:17.800Z,100518.53
2022-11-20T07:45:45.853Z,100524.44
2022-11-20T07:48:15.503Z,100521.94
2022-11-20T07:50:43.503Z,100523.03
2022-11-20T07:53:11.320Z,100522.97
2022-11-20T07:55:39.328Z,100519.59
2022-11-20T07:58:07.248Z,100530.75
2022-11-20T08:00:35.416Z,100530.81
2022-11-20T08:03:05.443Z,100522.25
2022-11-20T08:05:34.877Z,100519.69
2022-11-20T08:08:03.130Z,100517.97
2022-11-20T08:10:31.119Z,100519.72
2022-11-20T08:13:16.436Z,100518.84
2022-11-20T08:15:50.392Z,100513.00
2022-11-20T08:18:33.895Z,100529.16
2022-11-20T08:21:05.719Z,100520.69
2022-11-20T08:23:33.622Z,100525.03
2022-11-20T08:26:02.681Z,100524.16
2022-11-20T08:28:30.659Z,100525.09
2022-11-20T08:31:00.708Z,100519.09
2022-11-20T08:33:28.611Z,100528.53
2022-11-20T08:36:01.184Z,100528.59
2022-11-20T08:38:30.521Z,100529.38
2022-11-20T08:41:16.827Z,100531.28
2022-11-20T08:43:44.831Z,100532.16
2022-11-20T08:46:12.798Z,100526.91
2022-11-20T08:48:40.726Z,100528.69
2022-11-20T08:51:08.601Z,100535.66
2022-11-20T08:53:37.853Z,100538.13
2022-11-20T08:56:06.478Z,100533.91
2022-11-20T08:58:54.985Z,100539.09
2022-11-20T09:01:23.231Z,100539.22
2022-11-20T09:03:51.522Z,100546.06
2022-11-20T09:06:19.998Z,100541.66
2022-11-20T09:08:49.454Z,100541.81
2022-11-20T09:11:17.611Z,100542.59
2022-11-20T09:13:45.596Z,100538.38
2022-11-20T09:16:13.471Z,100530.75
2022-11-20T09:18:41.590Z,100537.53
2022-11-20T09:21:12.300Z,100540.06
2022-11-20T09:23:40.793Z,100540.03
2022-11-20T09:26:12.492Z,100533.19
2022-11-20T09:28:40.704Z,100539.22
2022-11-20T09:31:09.416Z,100537.41
2022-11-20T09:33:37.394Z,100531.34
2022-11-20T09:36:05.859Z,100538.22
2022-11-20T09:38:33.873Z,100536.50
2022-11-20T09:41:06.392Z,100535.66
2022-11-20T09:43:45.597Z,100532.22
2022-11-20T09:46:18.272Z,100527.97
2022-11-20T09:48:57.691Z,100530.50
2022-11-20T09:51:33.774Z,100526.25
2022-11-20T09:54:09.246Z,100529.81
2022-11-20T09:56:39.895Z,100532.47
2022-11-20T09:59:09.932Z,100535.19
2022-11-20T10:01:39.251Z,100530.19
2022-11-20T10:04:10.564Z,100535.31
2022-11-20T10:06:43.282Z,100531.97
2022-11-20T10:09:21.416Z,100529.44
2022-11-20T10:11:54.237Z,100529.38
2022-11-20T10:14:32.831Z,100529.38
2022-11-20T10:17:06.001Z,100525.97
2022-11-20T10:19:44.380Z,100519.16
2022-11-20T10:22:19.747Z,100531.16
2022-11-20T10:24:57.446Z,100532.00
2022-11-20T10:27:52.421Z,100526.88
2022-11-20T10:30:25.853Z,100531.16
2022-11-20T10:32:56.231Z,100543.19
2022-11-20T10:35:27.638Z,100544.00
2022-11-20T10:37:57.978Z,100551.72
2022-11-20T10:40:31.641Z,100554.31
2022-11-20T10:43:02.051Z,100550.88
2022-11-20T10:45:39.012Z,100553.44
2022-11-20T10:48:15.156Z,100554.28
2022-11-20T10:50:52.027Z,100539.69
2022-11-20T10:53:29.347Z,100533.59
2022-11-20T10:56:00.510Z,100531.03
2022-11-20T10:58:35.614Z,100524.19
2022-11-20T11:01:14.030Z,100533.59
2022-11-20T11:03:43.905Z,100528.53
2022-11-20T11:06:17.084Z,100528.59
2022-11-20T11:08:45.407Z,100540.53
2022-11-20T11:11:22.685Z,100537.94
2022-11-20T11:13:50.601Z,100541.38
2022-11-20T11:16:24.079Z,100538.84
2022-11-20T11:18:52.660Z,100528.59
2022-11-20T11:21:25.542Z,100536.31
2022-11-20T11:24:19.621Z,100534.59
2022-11-20T11:26:54.970Z,100548.28
2022-11-20T11:29:23.026Z,100556.88
2022-11-20T11:31:52.316Z,100552.56
2022-11-20T11:34:20.171Z,100558.56
2022-11-20T11:36:55.672Z,100557.72
2022-11-20T11:39:24.094Z,100555.97
2022-11-20T11:41:52.236Z,100566.25
2022-11-20T11:44:39.391Z,100567.13
2022-11-20T11:47:15.009Z,100562.00
2022-11-20T11:49:42.869Z,100562.00
2022-11-20T11:52:14.892Z,100568.00
2022-11-20T11:54:46.163Z,100570.59
2022-11-20T11:57:18.334Z,100573.13
2022-11-20T12:00:03.029Z,100562.88
2022-11-20T12:02:38.897Z,100560.28
2022-11-20T12:05:15.625Z,100553.44
2022-11-20T12:07:47.022Z,100547.44
2022-11-20T12:10:22.137Z,100554.28
2022-11-20T12:12:53.300Z,100549.16
2022-11-20T12:15:31.972Z,100555.97
2022-11-20T12:18:01.959Z,100549.16
2022-11-20T12:20:33.449Z,100552.53
2022-11-20T12:23:07.324Z,100540.50
2022-11-20T12:25:37.953Z,100536.09
2022-11-20T12:28:40.216Z,100536.94
2022-11-20T12:31:23.466Z,100549.97
2022-11-20T12:34:00.244Z,100545.56
2022-11-20T12:36:35.542Z,100554.09
2022-11-20T12:39:28.729Z,100559.25
2022-11-20T12:42:33.493Z,100565.44
2022-11-20T12:45:26.825Z,100563.72
2022-11-20T12:48:24.838Z,100555.06
2022-11-20T12:51:15.107Z,100558.44
2022-11-20T12:53:52.045Z,100543.88
2022-11-20T12:56:26.891Z,100533.59
2022-11-20T12:59:06.541Z,100536.22
2022-11-20T13:01:43.531Z,100536.16
2022-11-20T13:04:21.279Z,100537.03
2022-11-20T13:06:51.278Z,100536.03
2022-11-20T13:09:22.779Z,100532.56
2022-11-20T13:11:58.152Z,100535.00
2022-11-20T13:14:32.588Z,100521.25
2022-11-20T13:17:06.274Z,100522.09
2022-11-20T13:19:34.584Z,100522.91
2022-11-20T13:22:03.880Z,100518.63
2022-11-20T13:24:32.728Z,100512.59
2022-11-20T13:27:06.551Z,100507.34
2022-11-20T13:29:35.281Z,100507.28
2022-11-20T13:32:08.451Z,100498.72
2022-11-20T13:34:37.512Z,100495.19
2022-11-20T13:37:06.861Z,100480.66
2022-11-20T13:39:36.416Z,100483.94
2022-11-20T13:42:05.871Z,100479.63
2022-11-20T13:44:38.741Z,100466.81
2022-11-20T13:47:22.277Z,100471.06
2022-11-20T13:49:50.329Z,100467.63
2022-11-20T13:52:36.698Z,100467.47
2022-11-20T13:55:14.450Z,100455.44
2022-11-20T13:58:17.333Z,100465.78
2022-11-20T14:00:46.978Z,100462.34
2022-11-20T14:03:28.427Z,100474.41
2022-11-20T14:06:15.457Z,100468.34
2022-11-20T14:08:48.424Z,100462.28
2022-11-20T14:11:16.995Z,100457.22
2022-11-20T14:14:17.593Z,100461.47
2022-11-20T14:16:46.146Z,100447.84
2022-11-20T14:19:31.263Z,100441.06
2022-11-20T14:22:16.673Z,100435.91
2022-11-20T14:24:45.930Z,100436.72
2022-11-20T14:27:18.221Z,100431.53
2022-11-20T14:29:47.084Z,100429.78
2022-11-20T14:32:17.790Z,100419.56
2022-11-20T14:34:47.037Z,100424.59
2022-11-20T14:37:20.625Z,100427.19
2022-11-20T14:39:53.811Z,100424.63
2022-11-20T14:42:23.138Z,100422.00
2022-11-20T14:44:51.973Z,100417.72
2022-11-20T14:47:22.913Z,100415.97
2022-11-20T14:49:51.974Z,100411.75
2022-11-20T14:52:21.447Z,100413.38
2022-11-20T14:54:52.456Z,100407.31
2022-11-20T14:57:25.878Z,100412.41
2022-11-20T14:59:54.081Z,100416.59
2022-11-20T15:02:22.013Z,100421.84
2022-11-20T15:04:51.064Z,100421.03
2022-11-20T15:07:26.825Z,100415.88
2022-11-20T15:10:08.168Z,100419.28
2022-11-20T15:12:38.060Z,100421.78
2022-11-20T15:15:07.337Z,100423.47
2022-11-20T15:17:38.809Z,100430.19
2022-11-20T15:20:12.367Z,100417.28
2022-11-20T15:22:40.205Z,100410.44
2022-11-20T15:25:15.738Z,100406.25
2022-11-20T15:27:43.822Z,100408.91
2022-11-20T15:30:16.016Z,100405.47
2022-11-20T15:32:44.142Z,100398.56
2022-11-20T15:35:12.668Z,100395.09
2022-11-20T15:37:41.087Z,100400.28
2022-11-20T15:40:10.197Z,100394.41
2022-11-20T15:42:39.490Z,100390.13
2022-11-20T15:45:07.725Z,100390.84
2022-11-20T15:47:36.674Z,100385.81
2022-11-20T15:50:05.073Z,100380.53
2022-11-20T15:52:40.421Z,100368.63
2022-11-20T15:55:12.048Z,100362.66
2022-11-20T15:57:41.283Z,100369.50
2022-11-20T16:00:10.620Z,100365.31
2022-11-20T16:02:41.633Z,100372.13
2022-11-20T16:05:12.219Z,100361.97
2022-11-20T16:07:40.195Z,100360.16
2022-11-20T16:10:08.744Z,100364.47
2022-11-20T16:12:53.958Z,100366.22
2022-11-20T16:15:40.612Z,100372.97
2022-11-20T16:18:10.771Z,100368.72
2022-11-20T16:20:38.940Z,100356.81
2022-11-20T16:23:07.515Z,100358.50
2022-11-20T16:25:35.551Z,100356.75
2022-11-20T16:28:03.719Z,100361.91
2022-11-20T16:30:33.089Z,100358.50
2022-11-20T16:33:01.084Z,100351.72
2022-11-20T16:35:29.233Z,100350.97
2022-11-20T16:37:57.376Z,100360.38
2022-11-20T16:40:26.429Z,100354.41
2022-11-20T16:42:54.451Z,100351.84
2022-11-20T16:45:26.950Z,100353.56
2022-11-20T16:47:58.266Z,100347.63
2022-11-20T16:50:26.186Z,100350.19
2022-11-20T16:52:54.128Z,100341.72
2022-11-20T16:55:22.248Z,100337.59
2022-11-20T16:57:50.196Z,100333.31
2022-11-20T17:00:18.556Z,100337.56
2022-11-20T17:02:46.511Z,100343.53
2022-11-20T17:05:15.908Z,100341.81
2022-11-20T17:07:43.907Z,100341.72
2022-11-20T17:10:11.847Z,100343.47
2022-11-20T17:12:39.758Z,100340.03
2022-11-20T17:15:08.608Z,100329.78
2022-11-20T17:17:36.560Z,100329.75
2022-11-20T17:20:04.772Z,100322.88
2022-11-20T17:22:34.138Z,100319.44
2022-11-20T17:25:02.094Z,100316.09
2022-11-20T17:27:29.999Z,100311.81
2022-11-20T17:29:59.023Z,100313.53
2022-11-20T17:32:26.885Z,100309.34
2022-11-20T17:34:54.764Z,100309.44
2022-11-20T17:37:22.673Z,100318.91
2022-11-20T17:39:52.217Z,100318.78
2022-11-20T17:42:29.764Z,100306.78
2022-11-20T17:44:59.643Z,100309.28
2022-11-20T17:47:27.531Z,100294.75
2022-11-20T17:49:55.415Z,100289.66
2022-11-20T17:52:23.600Z,100298.97
2022-11-20T17:54:55.858Z,100288.84
2022-11-20T17:57:41.884Z,100288.00
2022-11-20T18:00:13.170Z,100296.56
2022-11-20T18:02:41.111Z,100296.59
2022-11-20T18:05:09.536Z,100297.44
2022-11-20T18:07:41.644Z,100310.34
2022-11-20T18:10:11.637Z,100302.69
2022-11-20T18:12:39.470Z,100302.53
2022-11-20T18:15:08.058Z,100305.94
2022-11-20T18:17:36.369Z,100299.00
2022-11-20T18:20:27.760Z,100299.75
2022-11-20T18:22:52.734Z,100294.75
2022-11-20T18:25:22.169Z,100299.84
2022-11-20T18:27:50.033Z,100303.34
2022-11-20T18:30:18.844Z,100305.88
2022-11-20T18:32:46.800Z,100299.84
2022-11-20T18:35:15.062Z,100289.63
2022-11-20T18:37:42.932Z,100294.72
2022-11-20T18:40:12.469Z,100282.81
2022-11-20T18:42:59.342Z,100281.94
2022-11-20T18:45:27.228Z,100293.00
2022-11-20T18:47:55.072Z,100284.53
2022-11-20T18:50:23.254Z,100292.16
2022-11-20T18:52:51.260Z,100285.31
2022-11-20T18:55:19.479Z,100288.72
2022-11-20T18:57:48.842Z,100279.34
2022-11-20T19:00:17.849Z,100284.53
2022-11-20T19:02:45.737Z,100283.56
2022-11-20T19:05:14.728Z,100275.16
2022-11-20T19:07:43.365Z,100276.88
2022-11-20T19:10:11.583Z,100274.16
2022-11-20T19:12:39.528Z,100276.72
2022-11-20T19:15:09.441Z,100275.91
2022-11-20T19:17:37.730Z,100283.69
2022-11-20T19:20:06.271Z,100279.22
2022-11-20T19:22:34.333Z,100275.00
2022-11-20T19:25:02.240Z,100274.88
2022-11-20T19:27:30.223Z,100270.63
2022-11-20T19:30:03.090Z,100271.41
2022-11-20T19:32:32.885Z,100258.69
2022-11-20T19:35:00.781Z,100257.69
2022-11-20T19:37:29.717Z,100256.84
2022-11-20T19:39:59.567Z,100253.50
2022-11-20T19:42:27.556Z,100256.06
2022-11-20T19:44:55.509Z,100256.91
2022-11-20T19:47:35.391Z,100255.09
2022-11-20T19:50:13.066Z,100259.59
2022-11-20T19:52:41.308Z,100265.56
2022-11-20T19:55:09.977Z,100269.75
2022-11-20T19:57:37.855Z,100274.91
2022-11-20T20:00:06.686Z,100268.06
2022-11-20T20:02:34.651Z,100276.56
2022-11-20T20:05:02.587Z,100268.16
2022-11-20T20:07:31.954Z,100264.63
2022-11-20T20:09:59.887Z,100269.78
2022-11-20T20:12:27.793Z,100266.44
2022-11-20T20:14:55.749Z,100270.72
2022-11-20T20:17:23.618Z,100269.00
2022-11-20T20:19:51.511Z,100277.47
2022-11-20T20:22:19.348Z,100268.13
2022-11-20T20:24:48.592Z,100265.56
2022-11-20T20:27:16.489Z,100265.50
2022-11-20T20:29:44.440Z,100263.72
2022-11-20T20:32:12.330Z,100265.47
2022-11-20T20:34:40.282Z,100259.47
2022-11-20T20:37:08.164Z,100263.78
2022-11-20T20:39:36.064Z,100263.81
2022-11-20T20:42:05.753Z,100256.19
2022-11-20T20:44:51.054Z,100253.69
2022-11-20T20:47:18.965Z,100257.84
2022-11-20T20:49:46.773Z,100254.34
2022-11-20T20:52:14.946Z,100259.38
2022-11-20T20:54:43.273Z,100256.00
2022-11-20T20:57:12.899Z,100260.22
2022-11-20T20:59:40.796Z,100262.69
2022-11-20T21:02:08.847Z,100256.75
2022-11-20T21:04:36.811Z,100253.28
2022-11-20T21:07:04.816Z,100253.34
2022-11-20T21:09:32.680Z,100246.53
2022-11-20T21:12:00.613Z,100254.13
2022-11-20T21:14:29.859Z,100248.97
2022-11-20T21:16:57.762Z,100249.78
2022-11-20T21:19:25.664Z,100246.38
2022-11-20T21:22:03.333Z,100245.53
2022-11-20T21:24:33.363Z,100241.25
2022-11-20T21:27:02.117Z,100230.16
2022-11-20T21:29:31.680Z,100221.59
2022-11-20T21:31:59.666Z,100224.13
2022-11-20T21:34:27.659Z,100224.19
2022-11-20T21:36:55.897Z,100215.63
2022-11-20T21:39:23.768Z,100215.63
2022-11-20T21:41:51.652Z,100224.97
2022-11-20T21:44:34.826Z,100218.97
2022-11-20T21:47:03.874Z,100209.66
2022-11-20T21:49:31.720Z,100206.31
2022-11-20T21:51:59.782Z,100204.69
2022-11-20T21:54:27.744Z,100197.78
2022-11-20T21:56:55.725Z,100199.50
2022-11-20T21:59:23.725Z,100198.69
2022-11-20T22:01:51.733Z,100195.28
2022-11-20T22:04:22.816Z,100195.25
2022-11-20T22:06:50.891Z,100190.97
2022-11-20T22:09:18.742Z,100188.38
2022-11-20T22:11:46.615Z,100174.75
2022-11-20T22:14:24.048Z,100172.19
2022-11-20T22:16:53.694Z,100166.25
2022-11-20T22:19:23.887Z,100169.69
2022-11-20T22:21:51.838Z,100160.41
2022-11-20T22:24:21.507Z,100158.69
2022-11-20T22:26:50.327Z,100157.00
2022-11-20T22:29:19.505Z,100158.69
2022-11-20T22:31:47.769Z,100159.53
2022-11-20T22:34:15.832Z,100159.56
2022-11-20T22:36:45.564Z,100162.97
2022-11-20T22:39:13.493Z,100162.97
2022-11-20T22:41:41.345Z,100151.00
2022-11-20T22:44:09.805Z,100149.22
2022-11-20T22:46:38.434Z,100147.53
2022-11-20T22:49:08.395Z,100148.38
2022-11-20T22:51:37.973Z,100147.50
2022-11-20T22:54:07.641Z,100144.84
2022-11-20T22:56:35.902Z,100140.53
2022-11-20T22:59:04.034Z,100143.09
2022-11-20T23:01:33.155Z,100140.50
2022-11-20T23:04:02.317Z,100150.69
2022-11-20T23:06:30.488Z,100143.84
2022-11-20T23:08:58.769Z,100134.41
2022-11-20T23:11:29.551Z,100131.78
2022-11-20T23:13:58.905Z,100140.31
2022-11-20T23:16:28.158Z,100135.19
2022-11-20T23:18:57.433Z,100141.09
2022-11-20T23:21:25.634Z,100140.25
2022-11-20T23:23:55.394Z,100130.88
2022-11-20T23:26:24.933Z,100124.97
2022-11-20T23:28:56.288Z,100125.75
2022-11-20T23:31:24.788Z,100119.81
2022-11-20T23:33:53.163Z,100124.03
2022-11-20T23:36:21.041Z,100123.94
2022-11-20T23:38:48.872Z,100122.22
2022-11-20T23:41:16.766Z,100115.38
2022-11-20T23:43:44.851Z,100124.72
2022-11-20T23:46:16.784Z,100122.97
2022-11-20T23:48:45.879Z,100114.47
2022-11-20T23:51:14.027Z,100105.03
2022-11-20T23:53:42.317Z,100105.84
2022-11-20T23:56:10.235Z,100111.06
2022-11-20T23:58:39.316Z,100106.78
